createdAt,value
2022-07-28T00:00:15.360Z,23.65
2022-07-28T00:02:42.729Z,23.58
2022-07-28T00:05:10.387Z,23.61
2022-07-28T00:07:37.687Z,23.53
2022-07-28T00:10:05.838Z,23.40
2022-07-28T00:12:33.113Z,23.42
2022-07-28T00:15:00.880Z,23.44
2022-07-28T00:17:28.251Z,23.32
2022-07-28T00:19:55.503Z,23.35
2022-07-28T00:22:22.851Z,23.21
2022-07-28T00:24:50.266Z,23.16
2022-07-28T00:27:19.459Z,23.31
2022-07-28T00:29:50.355Z,23.09
2022-07-28T00:32:20.633Z,23.06
2022-07-28T00:34:48.468Z,22.90
2022-07-28T00:37:15.697Z,23.07
2022-07-28T00:39:43.988Z,23.13
2022-07-28T00:42:12.308Z,23.11
2022-07-28T00:44:41.870Z,23.00
2022-07-28T00:47:09.542Z,23.02
2022-07-28T00:49:36.897Z,23.19
2022-07-28T00:52:06.532Z,23.18
2022-07-28T00:54:34.770Z,23.10
2022-07-28T00:57:02.321Z,23.14
2022-07-28T00:59:29.604Z,22.99
2022-07-28T01:02:01.078Z,22.87
2022-07-28T01:04:28.919Z,22.77
2022-07-28T01:07:22.490Z,22.79
2022-07-28T01:10:14.264Z,22.85
2022-07-28T01:13:00.419Z,22.95
2022-07-28T01:15:35.223Z,23.15
2022-07-28T01:18:16.983Z,23.23
2022-07-28T01:21:03.037Z,23.09
2022-07-28T01:23:32.699Z,23.11
2022-07-28T01:26:30.281Z,23.13
2022-07-28T01:29:03.232Z,23.08
2022-07-28T01:31:40.049Z,23.17
2022-07-28T01:34:15.658Z,23.08
2022-07-28T01:36:48.352Z,23.09
2022-07-28T01:39:16.589Z,23.33
2022-07-28T01:41:45.089Z,23.35
2022-07-28T01:44:19.202Z,23.20
2022-07-28T01:46:52.019Z,23.11
2022-07-28T01:49:21.676Z,23.10
2022-07-28T01:51:50.467Z,23.06
2022-07-28T01:54:23.111Z,23.00
2022-07-28T01:56:52.316Z,22.83
2022-07-28T01:59:20.981Z,22.72
2022-07-28T02:01:50.968Z,22.76
2022-07-28T02:04:24.202Z,22.66
2022-07-28T02:06:54.707Z,22.53
2022-07-28T02:09:23.376Z,22.41
2022-07-28T02:11:53.656Z,22.07
2022-07-28T02:14:25.600Z,21.81
2022-07-28T02:17:07.975Z,21.85
2022-07-28T02:19:37.604Z,21.61
2022-07-28T02:22:06.798Z,21.51
2022-07-28T02:24:35.806Z,21.50
2022-07-28T02:27:22.472Z,21.52
2022-07-28T02:30:03.285Z,21.50
2022-07-28T02:32:37.376Z,21.49
2022-07-28T02:35:31.939Z,21.46
2022-07-28T02:38:12.580Z,21.55
2022-07-28T02:40:44.809Z,21.54
2022-07-28T02:43:16.698Z,21.75
2022-07-28T02:45:48.378Z,21.62
2022-07-28T02:48:19.490Z,21.76
2022-07-28T02:50:47.735Z,21.97
2022-07-28T02:53:19.705Z,22.01
2022-07-28T02:55:49.223Z,21.85
2022-07-28T02:58:19.390Z,21.71
2022-07-28T03:00:47.956Z,21.53
2022-07-28T03:03:16.715Z,21.60
2022-07-28T03:05:44.501Z,21.78
2022-07-28T03:08:12.261Z,21.89
2022-07-28T03:10:39.659Z,21.79
2022-07-28T03:13:07.540Z,21.84
2022-07-28T03:15:36.475Z,21.83
2022-07-28T03:18:05.996Z,21.88
2022-07-28T03:20:36.999Z,22.04
2022-07-28T03:23:04.412Z,22.10
2022-07-28T03:25:51.074Z,22.11
2022-07-28T03:28:20.610Z,22.09
2022-07-28T03:30:54.865Z,22.03
2022-07-28T03:33:22.283Z,21.89
2022-07-28T03:35:52.985Z,22.01
2022-07-28T03:38:46.168Z,21.91
2022-07-28T03:41:15.350Z,21.78
2022-07-28T03:43:44.943Z,22.06
2022-07-28T03:46:13.709Z,21.71
2022-07-28T03:48:41.202Z,21.54
2022-07-28T03:51:08.558Z,21.41
2022-07-28T03:53:35.987Z,21.19
2022-07-28T03:56:03.954Z,21.11
2022-07-28T03:58:31.752Z,21.19
2022-07-28T04:00:59.522Z,21.28
2022-07-28T04:03:42.493Z,21.42
2022-07-28T04:06:15.594Z,21.41
2022-07-28T04:08:44.458Z,21.48
2022-07-28T04:11:11.932Z,21.55
2022-07-28T04:13:39.399Z,22.06
2022-07-28T04:16:07.573Z,22.47
2022-07-28T04:18:35.249Z,22.58
2022-07-28T04:21:02.641Z,22.77
2022-07-28T04:23:30.841Z,23.06
2022-07-28T04:25:58.192Z,23.25
2022-07-28T04:28:25.474Z,23.52
2022-07-28T04:30:52.753Z,23.76
2022-07-28T04:33:20.738Z,23.67
2022-07-28T04:35:48.041Z,23.77
2022-07-28T04:38:17.981Z,24.01
2022-07-28T04:40:45.767Z,23.74
2022-07-28T04:43:13.694Z,23.74
2022-07-28T04:45:46.025Z,24.01
2022-07-28T04:48:23.093Z,23.84
2022-07-28T04:50:52.728Z,23.88
2022-07-28T04:53:20.614Z,24.10
2022-07-28T04:55:53.455Z,24.44
2022-07-28T04:58:22.607Z,24.47
2022-07-28T05:00:50.930Z,24.58
2022-07-28T05:03:19.271Z,25.01
2022-07-28T05:05:49.038Z,25.35
2022-07-28T05:08:21.498Z,25.64
2022-07-28T05:10:49.230Z,25.96
2022-07-28T05:13:16.513Z,26.26
2022-07-28T05:15:43.740Z,26.26
2022-07-28T05:18:10.997Z,26.33
2022-07-28T05:20:38.210Z,26.65
2022-07-28T05:23:05.598Z,26.83
2022-07-28T05:25:32.954Z,27.02
2022-07-28T05:28:00.237Z,27.11
2022-07-28T05:30:27.588Z,27.45
2022-07-28T05:32:59.245Z,27.88
2022-07-28T05:35:26.998Z,27.84
2022-07-28T05:37:54.209Z,28.12
2022-07-28T05:40:21.555Z,28.33
2022-07-28T05:42:48.948Z,28.30
2022-07-28T05:45:21.807Z,28.62
2022-07-28T05:47:52.454Z,28.27
2022-07-28T05:50:22.272Z,28.21
2022-07-28T05:52:51.221Z,28.18
2022-07-28T05:55:19.419Z,28.21
2022-07-28T05:57:47.160Z,28.84
2022-07-28T06:00:16.745Z,28.83
2022-07-28T06:02:49.492Z,28.68
2022-07-28T06:05:19.149Z,28.45
2022-07-28T06:07:47.763Z,28.32
2022-07-28T06:10:18.457Z,28.67
2022-07-28T06:12:51.160Z,28.06
2022-07-28T06:15:27.164Z,28.29
2022-07-28T06:17:55.955Z,28.64
2022-07-28T06:20:24.697Z,29.19
2022-07-28T06:22:55.612Z,28.89
2022-07-28T06:25:28.382Z,28.44
2022-07-28T06:27:59.951Z,28.69
2022-07-28T06:30:27.820Z,29.33
2022-07-28T06:32:55.454Z,29.30
2022-07-28T06:35:23.151Z,28.94
2022-07-28T06:37:52.214Z,28.43
2022-07-28T06:40:21.242Z,28.63
2022-07-28T06:42:50.024Z,28.69
2022-07-28T06:45:21.303Z,28.71
2022-07-28T06:47:53.799Z,28.72
2022-07-28T06:50:26.510Z,28.92
2022-07-28T06:52:58.995Z,29.86
2022-07-28T06:55:34.481Z,30.53
2022-07-28T06:58:03.799Z,31.07
2022-07-28T07:00:31.602Z,30.99
2022-07-28T07:03:00.555Z,30.93
2022-07-28T07:05:32.040Z,31.24
2022-07-28T07:07:59.876Z,31.31
2022-07-28T07:10:27.547Z,31.35
2022-07-28T07:12:55.527Z,31.84
2022-07-28T07:15:25.821Z,32.04
2022-07-28T07:17:54.271Z,32.08
2022-07-28T07:20:21.604Z,32.17
2022-07-28T07:22:49.029Z,32.01
2022-07-28T07:25:20.670Z,32.36
2022-07-28T07:27:48.600Z,32.16
2022-07-28T07:30:16.958Z,32.48
2022-07-28T07:32:45.205Z,32.38
2022-07-28T07:35:12.667Z,32.54
2022-07-28T07:37:40.189Z,32.72
2022-07-28T07:40:08.874Z,32.76
2022-07-28T07:42:36.253Z,32.77
2022-07-28T07:45:04.226Z,32.50
2022-07-28T07:47:31.643Z,32.48
2022-07-28T07:50:00.850Z,32.44
2022-07-28T07:52:31.042Z,32.48
2022-07-28T07:54:58.349Z,32.86
2022-07-28T07:57:25.670Z,32.64
2022-07-28T07:59:52.895Z,32.47
2022-07-28T08:02:20.123Z,32.94
2022-07-28T08:04:47.781Z,32.62
2022-07-28T08:07:15.972Z,32.74
2022-07-28T08:09:43.267Z,33.17
2022-07-28T08:12:10.571Z,33.07
2022-07-28T08:14:37.799Z,33.18
2022-07-28T08:17:05.184Z,33.75
2022-07-28T08:19:32.480Z,33.99
2022-07-28T08:22:01.290Z,34.28
2022-07-28T08:24:34.047Z,34.52
2022-07-28T08:27:02.994Z,33.97
2022-07-28T08:29:30.582Z,34.52
2022-07-28T08:31:58.503Z,34.44
2022-07-28T08:34:33.076Z,34.53
2022-07-28T08:37:02.702Z,34.96
2022-07-28T08:39:31.348Z,34.79
2022-07-28T08:42:35.327Z,35.46
2022-07-28T08:45:05.322Z,36.12
2022-07-28T08:47:52.026Z,36.74
2022-07-28T08:50:25.381Z,36.99
2022-07-28T08:52:54.367Z,37.82
2022-07-28T08:55:32.144Z,38.76
2022-07-28T08:58:00.879Z,39.61
2022-07-28T09:00:29.553Z,40.26
2022-07-28T09:02:57.377Z,40.12
2022-07-28T09:05:28.248Z,40.37
2022-07-28T09:07:56.000Z,39.93
2022-07-28T09:10:23.761Z,40.10
2022-07-28T09:12:51.681Z,40.68
2022-07-28T09:15:19.062Z,41.46
2022-07-28T09:17:46.402Z,41.66
2022-07-28T09:20:13.935Z,41.91
2022-07-28T09:23:02.641Z,42.69
2022-07-28T09:25:30.876Z,43.51
2022-07-28T09:28:12.699Z,43.49
2022-07-28T09:30:54.086Z,44.46
2022-07-28T09:33:43.167Z,44.81
2022-07-28T09:36:16.490Z,44.93
2022-07-28T09:38:43.976Z,45.31
2022-07-28T09:41:11.796Z,45.14
2022-07-28T09:43:42.511Z,45.33
2022-07-28T09:46:18.338Z,44.46
2022-07-28T09:48:55.322Z,44.66
2022-07-28T09:51:30.713Z,44.71
2022-07-28T09:54:09.858Z,44.38
2022-07-28T09:56:41.924Z,43.66
2022-07-28T09:59:09.494Z,43.93
2022-07-28T10:01:52.508Z,44.12
2022-07-28T10:04:44.413Z,43.85
2022-07-28T10:07:17.272Z,43.66
2022-07-28T10:09:56.345Z,43.28
2022-07-28T10:12:30.741Z,42.83
2022-07-28T10:15:32.772Z,42.15
2022-07-28T10:18:00.296Z,41.60
2022-07-28T10:20:28.910Z,41.60
2022-07-28T10:23:02.020Z,41.59
2022-07-28T10:25:32.930Z,41.30
2022-07-28T10:28:01.752Z,41.61
2022-07-28T10:30:31.812Z,41.36
2022-07-28T10:33:03.358Z,40.81
2022-07-28T10:35:33.434Z,40.86
2022-07-28T10:38:24.093Z,41.26
2022-07-28T10:40:54.215Z,40.98
2022-07-28T10:43:22.555Z,40.93
2022-07-28T10:46:08.102Z,41.10
2022-07-28T10:48:41.070Z,41.11
2022-07-28T10:51:12.049Z,41.77
2022-07-28T10:54:07.076Z,42.12
2022-07-28T10:56:51.514Z,42.19
2022-07-28T10:59:46.213Z,42.73
2022-07-28T11:02:53.418Z,43.18
2022-07-28T11:05:32.684Z,43.96
2022-07-28T11:08:04.029Z,45.25
2022-07-28T11:10:56.270Z,45.45
2022-07-28T11:13:30.011Z,46.01
2022-07-28T11:16:18.524Z,45.63
2022-07-28T11:19:07.833Z,46.08
2022-07-28T11:22:28.154Z,47.09
2022-07-28T11:25:19.233Z,47.91
2022-07-28T11:27:50.049Z,48.10
2022-07-28T11:30:22.853Z,48.33
2022-07-28T11:32:55.769Z,48.76
2022-07-28T11:35:31.415Z,48.24
2022-07-28T11:38:01.551Z,48.21
2022-07-28T11:40:32.993Z,48.26
2022-07-28T11:43:22.373Z,48.15
2022-07-28T11:45:55.445Z,47.74
2022-07-28T11:48:26.460Z,48.06
2022-07-28T11:51:12.967Z,49.14
2022-07-28T11:53:41.459Z,49.42
2022-07-28T11:56:31.718Z,49.90
2022-07-28T11:59:04.039Z,49.55
2022-07-28T12:01:32.469Z,49.92
2022-07-28T12:04:15.278Z,48.38
2022-07-28T12:06:51.137Z,49.05
2022-07-28T12:09:41.335Z,47.91
2022-07-28T12:12:09.900Z,49.59
2022-07-28T12:14:39.868Z,50.01
2022-07-28T12:17:07.588Z,49.87
2022-07-28T12:19:37.754Z,49.98
2022-07-28T12:22:15.551Z,49.23
2022-07-28T12:24:47.571Z,48.79
2022-07-28T12:27:16.669Z,49.19
2022-07-28T12:29:47.985Z,49.13
2022-07-28T12:32:17.718Z,48.68
2022-07-28T12:34:46.053Z,49.49
2022-07-28T12:37:14.803Z,50.50
2022-07-28T12:39:44.368Z,49.14
2022-07-28T12:42:13.608Z,49.20
2022-07-28T12:44:43.154Z,50.30
2022-07-28T12:47:17.762Z,51.44
2022-07-28T12:49:45.881Z,51.73
2022-07-28T12:52:23.118Z,49.45
2022-07-28T12:54:56.189Z,48.77
2022-07-28T12:57:50.770Z,48.17
2022-07-28T13:00:25.862Z,46.40
2022-07-28T13:02:56.771Z,44.01
2022-07-28T13:05:31.154Z,42.07
2022-07-28T13:08:06.241Z,40.83
2022-07-28T13:10:33.928Z,40.10
2022-07-28T13:13:08.484Z,39.56
2022-07-28T13:15:35.983Z,38.85
2022-07-28T13:18:05.107Z,38.96
2022-07-28T13:20:47.091Z,38.71
2022-07-28T13:23:14.624Z,38.41
2022-07-28T13:25:42.086Z,38.32
2022-07-28T13:28:29.818Z,38.38
2022-07-28T13:30:57.180Z,38.13
2022-07-28T13:33:28.444Z,38.22
2022-07-28T13:35:56.201Z,37.99
2022-07-28T13:38:24.008Z,38.09
2022-07-28T13:40:51.364Z,38.03
2022-07-28T13:43:18.713Z,37.90
2022-07-28T13:45:48.077Z,37.69
2022-07-28T13:48:15.373Z,37.60
2022-07-28T13:50:42.630Z,36.98
2022-07-28T13:53:33.732Z,36.60
2022-07-28T13:56:01.192Z,36.49
2022-07-28T13:58:28.514Z,36.72
2022-07-28T14:00:57.261Z,37.22
2022-07-28T14:03:25.356Z,37.40
2022-07-28T14:05:52.839Z,37.30
2022-07-28T14:08:20.629Z,37.71
2022-07-28T14:10:56.718Z,38.10
2022-07-28T14:13:23.961Z,38.03
2022-07-28T14:16:02.023Z,38.19
2022-07-28T14:18:30.008Z,38.22
2022-07-28T14:20:58.529Z,38.64
2022-07-28T14:23:25.792Z,38.84
2022-07-28T14:25:53.518Z,38.33
2022-07-28T14:28:20.830Z,37.34
2022-07-28T14:30:48.055Z,36.91
2022-07-28T14:33:15.475Z,36.44
2022-07-28T14:35:43.057Z,37.08
2022-07-28T14:40:59.536Z,37.54
2022-07-28T14:43:29.315Z,37.56
2022-07-28T14:46:14.729Z,37.65
2022-07-28T14:48:43.929Z,37.71
2022-07-28T14:51:14.624Z,37.42
2022-07-28T14:53:50.021Z,36.94
2022-07-28T14:56:19.494Z,36.85
2022-07-28T14:58:46.771Z,35.56
2022-07-28T15:01:14.431Z,34.05
2022-07-28T15:03:43.236Z,32.87
2022-07-28T15:06:11.165Z,33.19
2022-07-28T15:08:38.421Z,32.47
2022-07-28T15:11:08.127Z,32.29
2022-07-28T15:13:35.561Z,32.22
2022-07-28T15:16:03.077Z,32.67
2022-07-28T15:18:30.435Z,33.52
2022-07-28T15:20:57.720Z,35.62
2022-07-28T15:23:24.967Z,38.49
2022-07-28T15:25:53.247Z,39.92
2022-07-28T15:28:20.995Z,40.79
2022-07-28T15:30:52.705Z,41.81
2022-07-28T15:33:21.126Z,41.61
2022-07-28T15:35:58.173Z,41.91
2022-07-28T15:38:31.608Z,42.71
2022-07-28T15:41:00.186Z,43.15
2022-07-28T15:43:34.932Z,43.60
2022-07-28T15:46:10.559Z,43.02
2022-07-28T15:48:39.877Z,41.72
2022-07-28T15:51:08.424Z,41.36
2022-07-28T15:53:36.789Z,40.80
2022-07-28T15:56:05.312Z,41.16
2022-07-28T15:58:32.811Z,41.16
2022-07-28T16:01:01.769Z,41.34
2022-07-28T16:03:30.715Z,40.96
2022-07-28T16:05:58.816Z,39.62
2022-07-28T16:08:27.248Z,38.61
2022-07-28T16:10:54.984Z,37.67
2022-07-28T16:13:35.781Z,36.97
2022-07-28T16:16:12.385Z,35.92
2022-07-28T16:18:43.266Z,34.75
2022-07-28T16:21:11.503Z,33.57
2022-07-28T16:23:38.874Z,32.85
2022-07-28T16:26:08.727Z,32.40
2022-07-28T16:28:36.674Z,31.87
2022-07-28T16:31:04.186Z,31.57
2022-07-28T16:33:33.449Z,31.06
2022-07-28T16:36:02.643Z,30.79
2022-07-28T16:38:30.586Z,30.29
2022-07-28T16:41:02.161Z,30.27
2022-07-28T16:43:29.505Z,30.11
2022-07-28T16:45:56.915Z,29.93
2022-07-28T16:48:25.986Z,29.68
2022-07-28T16:50:53.247Z,29.39
2022-07-28T16:53:20.503Z,29.38
2022-07-28T16:55:48.281Z,29.25
2022-07-28T16:58:15.722Z,29.26
2022-07-28T17:00:43.579Z,29.33
2022-07-28T17:03:11.041Z,29.14
2022-07-28T17:05:38.770Z,28.74
2022-07-28T17:08:06.853Z,28.54
2022-07-28T17:10:35.319Z,28.72
2022-07-28T17:13:03.163Z,28.45
2022-07-28T17:15:30.506Z,28.18
2022-07-28T17:17:59.118Z,28.04
2022-07-28T17:20:26.489Z,27.91
2022-07-28T17:22:53.896Z,27.87
2022-07-28T17:28:08.822Z,27.95
2022-07-28T17:30:36.557Z,28.36
2022-07-28T17:33:08.790Z,28.19
2022-07-28T17:35:38.611Z,28.12
2022-07-28T17:38:08.486Z,27.94
2022-07-28T17:40:38.355Z,28.10
2022-07-28T17:43:12.044Z,28.00
2022-07-28T17:45:40.073Z,28.22
2022-07-28T17:48:07.471Z,28.28
2022-07-28T17:50:37.382Z,27.97
2022-07-28T17:53:05.142Z,28.22
2022-07-28T17:55:57.690Z,27.92
2022-07-28T17:58:32.270Z,27.89
2022-07-28T18:01:12.189Z,28.04
2022-07-28T18:03:56.829Z,27.95
2022-07-28T18:06:34.831Z,28.04
2022-07-28T18:09:06.294Z,27.82
2022-07-28T18:11:37.556Z,27.67
2022-07-28T18:14:25.995Z,27.42
2022-07-28T18:16:53.295Z,27.41
2022-07-28T18:19:20.687Z,27.43
2022-07-28T18:21:47.983Z,27.33
2022-07-28T18:24:15.567Z,27.32
2022-07-28T18:26:43.174Z,27.42
2022-07-28T18:29:10.469Z,27.39
2022-07-28T18:31:45.441Z,27.36
2022-07-28T18:34:14.515Z,27.45
2022-07-28T18:36:42.392Z,27.14
2022-07-28T18:39:09.980Z,27.00
2022-07-28T18:41:47.154Z,26.84
2022-07-28T18:44:17.785Z,26.54
2022-07-28T18:46:45.883Z,26.36
2022-07-28T18:49:14.061Z,26.27
2022-07-28T18:51:45.359Z,26.10
2022-07-28T18:54:20.001Z,26.10
2022-07-28T18:56:52.333Z,26.38
2022-07-28T18:59:19.958Z,26.50
2022-07-28T19:01:47.365Z,26.74
2022-07-28T19:04:14.905Z,26.80
2022-07-28T19:06:42.607Z,27.00
2022-07-28T19:09:10.222Z,27.09
2022-07-28T19:11:41.181Z,26.97
2022-07-28T19:14:12.648Z,27.04
2022-07-28T19:16:40.025Z,27.10
2022-07-28T19:19:07.352Z,27.13
2022-07-28T19:21:35.238Z,26.97
2022-07-28T19:24:02.882Z,26.86
2022-07-28T19:26:30.189Z,26.68
2022-07-28T19:28:57.743Z,26.60
2022-07-28T19:31:25.784Z,26.46
2022-07-28T19:33:53.346Z,26.37
2022-07-28T19:36:22.392Z,26.11
2022-07-28T19:38:52.431Z,25.98
2022-07-28T19:41:22.680Z,25.91
2022-07-28T19:43:50.112Z,25.79
2022-07-28T19:46:19.001Z,25.80
2022-07-28T19:48:46.474Z,25.86
2022-07-28T19:51:14.950Z,25.97
2022-07-28T19:53:43.401Z,26.10
2022-07-28T19:56:12.034Z,26.10
2022-07-28T19:58:39.471Z,26.25
2022-07-28T20:01:07.054Z,26.22
2022-07-28T20:04:02.669Z,25.81
2022-07-28T20:06:25.321Z,25.38
2022-07-28T20:08:54.193Z,25.57
2022-07-28T20:11:21.572Z,25.42
2022-07-28T20:13:49.548Z,25.31
2022-07-28T20:16:17.582Z,25.16
2022-07-28T20:18:44.988Z,25.08
2022-07-28T20:21:12.331Z,25.33
2022-07-28T20:23:41.061Z,25.39
2022-07-28T20:26:10.143Z,25.31
2022-07-28T20:28:38.081Z,25.35
2022-07-28T20:31:07.437Z,25.44
2022-07-28T20:33:34.745Z,25.40
2022-07-28T20:36:02.019Z,25.59
2022-07-28T20:38:29.257Z,25.35
2022-07-28T20:40:56.539Z,25.12
2022-07-28T20:43:23.783Z,24.79
2022-07-28T20:46:05.856Z,24.53
2022-07-28T20:48:33.395Z,24.40
2022-07-28T20:51:00.657Z,24.19
2022-07-28T20:53:27.975Z,24.05
2022-07-28T20:55:55.403Z,23.86
2022-07-28T20:58:22.628Z,23.82
2022-07-28T21:00:51.325Z,23.68
2022-07-28T21:03:19.151Z,23.60
2022-07-28T21:05:46.388Z,23.53
2022-07-28T21:08:16.097Z,23.56
2022-07-28T21:10:44.958Z,23.66
2022-07-28T21:13:12.319Z,23.67
2022-07-28T21:15:39.585Z,23.65
2022-07-28T21:18:06.821Z,23.44
2022-07-28T21:20:34.231Z,23.46
2022-07-28T21:23:01.722Z,23.58
2022-07-28T21:25:34.740Z,23.52
2022-07-28T21:28:20.939Z,23.52
2022-07-28T21:30:48.172Z,23.64
2022-07-28T21:33:22.538Z,23.66
2022-07-28T21:35:51.127Z,23.55
2022-07-28T21:38:18.375Z,23.64
2022-07-28T21:40:45.589Z,23.44
2022-07-28T21:43:12.812Z,23.67
2022-07-28T21:45:40.252Z,23.60
2022-07-28T21:48:07.652Z,23.39
2022-07-28T21:50:37.524Z,23.43
2022-07-28T21:53:05.097Z,23.39
2022-07-28T21:55:32.421Z,23.33
2022-07-28T21:57:59.673Z,23.23
2022-07-28T22:00:26.959Z,23.20
2022-07-28T22:02:54.279Z,23.02
2022-07-28T22:05:21.741Z,22.91
2022-07-28T22:07:49.299Z,22.90
2022-07-28T22:10:17.529Z,22.75
2022-07-28T22:12:45.741Z,22.73
2022-07-28T22:15:12.960Z,22.61
2022-07-28T22:17:40.201Z,22.60
2022-07-28T22:20:10.426Z,22.65
2022-07-28T22:22:38.129Z,22.57
2022-07-28T22:25:05.812Z,22.64
2022-07-28T22:27:33.177Z,22.53
2022-07-28T22:30:00.434Z,22.52
2022-07-28T22:32:28.880Z,22.43
2022-07-28T22:34:58.223Z,22.44
2022-07-28T22:37:25.700Z,22.44
2022-07-28T22:39:53.158Z,22.28
2022-07-28T22:42:20.414Z,22.21
2022-07-28T22:44:48.652Z,22.21
2022-07-28T22:47:16.069Z,22.08
2022-07-28T22:49:43.395Z,22.16
2022-07-28T22:52:10.770Z,22.28
2022-07-28T22:54:39.184Z,22.23
2022-07-28T22:57:07.277Z,22.31
2022-07-28T22:59:39.871Z,22.38
2022-07-28T23:02:08.006Z,22.27
2022-07-28T23:04:38.409Z,22.22
2022-07-28T23:07:05.966Z,22.17
2022-07-28T23:09:41.076Z,22.19
2022-07-28T23:12:10.573Z,22.28
2022-07-28T23:14:37.961Z,22.33
2022-07-28T23:17:05.531Z,22.46
2022-07-28T23:19:32.961Z,22.19
2022-07-28T23:22:00.328Z,22.19
2022-07-28T23:24:27.800Z,22.16
2022-07-28T23:26:55.907Z,22.08
2022-07-28T23:29:23.423Z,22.24
2022-07-28T23:31:51.346Z,22.23
2022-07-28T23:34:19.137Z,22.06
2022-07-28T23:36:48.067Z,21.94
2022-07-28T23:39:15.557Z,21.85
2022-07-28T23:41:43.028Z,21.70
2022-07-28T23:44:10.507Z,21.56
2022-07-28T23:46:37.925Z,21.36
2022-07-28T23:49:05.767Z,21.28
2022-07-28T23:51:47.179Z,21.26
2022-07-28T23:54:16.526Z,21.13
2022-07-28T23:56:44.299Z,21.34
2022-07-28T23:59:14.433Z,21.55
